sensor_id;sensor_type;location;lat;lon;timestamp;P1;durP1;ratioP1;P2;durP2;ratioP2
53881;SDS011;39794;55.782;37.452;2023-02-28T00:00:28;4.13;;;2.90;;
53881;SDS011;39794;55.782;37.452;2023-02-28T00:02:57;6.40;;;3.47;;
53881;SDS011;39794;55.782;37.452;2023-02-28T00:05:27;4.82;;;2.90;;
53881;SDS011;39794;55.782;37.452;2023-02-28T00:07:56;6.32;;;3.35;;
53881;SDS011;39794;55.782;37.452;2023-02-28T00:10:25;5.15;;;2.35;;
53881;SDS011;39794;55.782;37.452;2023-02-28T00:12:55;8.13;;;4.35;;
53881;SDS011;39794;55.782;37.452;2023-02-28T00:15:28;4.47;;;2.67;;
53881;SDS011;39794;55.782;37.452;2023-02-28T00:17:57;4.25;;;3.20;;
53881;SDS011;39794;55.782;37.452;2023-02-28T00:20:25;4.88;;;3.25;;
53881;SDS011;39794;55.782;37.452;2023-02-28T00:22:56;5.68;;;3.17;;
53881;SDS011;39794;55.782;37.452;2023-02-28T00:25:26;4.90;;;2.92;;
53881;SDS011;39794;55.782;37.452;2023-02-28T00:27:55;6.43;;;4.13;;
53881;SDS011;39794;55.782;37.452;2023-02-28T00:30:24;6.90;;;3.92;;
53881;SDS011;39794;55.782;37.452;2023-02-28T00:32:57;8.90;;;4.43;;
53881;SDS011;39794;55.782;37.452;2023-02-28T00:35:29;6.40;;;3.90;;
53881;SDS011;39794;55.782;37.452;2023-02-28T00:37:58;8.05;;;4.05;;
53881;SDS011;39794;55.782;37.452;2023-02-28T00:40:26;5.68;;;3.70;;
53881;SDS011;39794;55.782;37.452;2023-02-28T00:42:55;7.07;;;4.00;;
53881;SDS011;39794;55.782;37.452;2023-02-28T00:45:24;6.47;;;3.80;;
53881;SDS011;39794;55.782;37.452;2023-02-28T00:47:52;7.15;;;3.63;;
53881;SDS011;39794;55.782;37.452;2023-02-28T00:50:23;3.67;;;2.03;;
53881;SDS011;39794;55.782;37.452;2023-02-28T00:52:51;5.95;;;3.70;;
53881;SDS011;39794;55.782;37.452;2023-02-28T00:55:19;5.22;;;3.15;;
53881;SDS011;39794;55.782;37.452;2023-02-28T00:57:49;5.90;;;3.45;;
53881;SDS011;39794;55.782;37.452;2023-02-28T01:00:18;7.35;;;3.90;;
53881;SDS011;39794;55.782;37.452;2023-02-28T01:02:50;5.85;;;3.53;;
53881;SDS011;39794;55.782;37.452;2023-02-28T01:05:23;10.98;;;3.80;;
53881;SDS011;39794;55.782;37.452;2023-02-28T01:07:51;8.13;;;4.05;;
53881;SDS011;39794;55.782;37.452;2023-02-28T01:10:20;7.80;;;4.45;;
53881;SDS011;39794;55.782;37.452;2023-02-28T01:12:48;5.65;;;3.42;;
53881;SDS011;39794;55.782;37.452;2023-02-28T01:15:17;8.32;;;4.70;;
53881;SDS011;39794;55.782;37.452;2023-02-28T01:17:46;5.65;;;3.42;;
53881;SDS011;39794;55.782;37.452;2023-02-28T01:20:14;6.15;;;4.00;;
53881;SDS011;39794;55.782;37.452;2023-02-28T01:22:45;6.53;;;3.60;;
53881;SDS011;39794;55.782;37.452;2023-02-28T01:25:14;6.22;;;4.10;;
53881;SDS011;39794;55.782;37.452;2023-02-28T01:27:42;4.40;;;2.88;;
53881;SDS011;39794;55.782;37.452;2023-02-28T01:30:12;13.50;;;3.97;;
53881;SDS011;39794;55.782;37.452;2023-02-28T01:32:41;5.40;;;3.67;;
53881;SDS011;39794;55.782;37.452;2023-02-28T01:35:10;2.70;;;2.50;;
53881;SDS011;39794;55.782;37.452;2023-02-28T01:37:39;3.13;;;2.30;;
53881;SDS011;39794;55.782;37.452;2023-02-28T01:40:11;5.30;;;3.28;;
53881;SDS011;39794;55.782;37.452;2023-02-28T01:42:44;5.00;;;3.10;;
53881;SDS011;39794;55.782;37.452;2023-02-28T01:45:19;5.03;;;2.83;;
53881;SDS011;39794;55.782;37.452;2023-02-28T01:47:51;7.72;;;3.72;;
53881;SDS011;39794;55.782;37.452;2023-02-28T01:50:23;5.93;;;3.08;;
53881;SDS011;39794;55.782;37.452;2023-02-28T01:52:56;7.53;;;3.42;;
53881;SDS011;39794;55.782;37.452;2023-02-28T01:55:31;6.13;;;4.03;;
53881;SDS011;39794;55.782;37.452;2023-02-28T01:58:04;5.90;;;3.70;;
53881;SDS011;39794;55.782;37.452;2023-02-28T02:00:33;6.40;;;3.38;;
53881;SDS011;39794;55.782;37.452;2023-02-28T02:03:05;7.93;;;3.80;;
53881;SDS011;39794;55.782;37.452;2023-02-28T02:05:37;6.15;;;3.05;;
53881;SDS011;39794;55.782;37.452;2023-02-28T02:08:08;6.13;;;3.30;;
53881;SDS011;39794;55.782;37.452;2023-02-28T02:10:41;7.32;;;3.55;;
53881;SDS011;39794;55.782;37.452;2023-02-28T02:13:25;6.03;;;3.80;;
53881;SDS011;39794;55.782;37.452;2023-02-28T02:16:04;5.90;;;2.97;;
53881;SDS011;39794;55.782;37.452;2023-02-28T02:18:40;5.10;;;3.05;;
53881;SDS011;39794;55.782;37.452;2023-02-28T02:27:36;5.95;;;3.58;;
53881;SDS011;39794;55.782;37.452;2023-02-28T02:30:27;5.13;;;3.55;;
53881;SDS011;39794;55.782;37.452;2023-02-28T02:33:09;4.40;;;2.70;;
53881;SDS011;39794;55.782;37.452;2023-02-28T02:35:55;5.18;;;2.35;;
53881;SDS011;39794;55.782;37.452;2023-02-28T02:38:29;6.47;;;3.28;;
53881;SDS011;39794;55.782;37.452;2023-02-28T02:41:03;5.65;;;3.50;;
53881;SDS011;39794;55.782;37.452;2023-02-28T02:43:38;4.85;;;2.90;;
53881;SDS011;39794;55.782;37.452;2023-02-28T02:46:10;6.05;;;3.15;;
53881;SDS011;39794;55.782;37.452;2023-02-28T02:48:44;5.00;;;3.60;;
53881;SDS011;39794;55.782;37.452;2023-02-28T02:51:16;5.43;;;3.28;;
53881;SDS011;39794;55.782;37.452;2023-02-28T02:53:47;3.47;;;2.22;;
53881;SDS011;39794;55.782;37.452;2023-02-28T02:56:18;4.15;;;2.70;;
53881;SDS011;39794;55.782;37.452;2023-02-28T02:58:52;3.78;;;2.97;;
53881;SDS011;39794;55.782;37.452;2023-02-28T03:01:22;5.00;;;3.10;;
53881;SDS011;39794;55.782;37.452;2023-02-28T03:03:56;5.95;;;3.90;;
53881;SDS011;39794;55.782;37.452;2023-02-28T03:06:28;6.72;;;3.55;;
53881;SDS011;39794;55.782;37.452;2023-02-28T03:08:57;6.15;;;3.28;;
53881;SDS011;39794;55.782;37.452;2023-02-28T03:11:26;6.22;;;3.67;;
53881;SDS011;39794;55.782;37.452;2023-02-28T03:13:58;7.22;;;3.97;;
53881;SDS011;39794;55.782;37.452;2023-02-28T03:16:53;6.18;;;3.63;;
53881;SDS011;39794;55.782;37.452;2023-02-28T03:19:34;9.02;;;4.65;;
53881;SDS011;39794;55.782;37.452;2023-02-28T03:22:19;6.50;;;4.20;;
53881;SDS011;39794;55.782;37.452;2023-02-28T03:24:57;6.30;;;3.85;;
53881;SDS011;39794;55.782;37.452;2023-02-28T03:27:33;9.27;;;4.75;;
53881;SDS011;39794;55.782;37.452;2023-02-28T03:30:06;7.78;;;4.43;;
53881;SDS011;39794;55.782;37.452;2023-02-28T03:32:39;3.80;;;2.88;;
53881;SDS011;39794;55.782;37.452;2023-02-28T03:35:10;7.25;;;4.22;;
53881;SDS011;39794;55.782;37.452;2023-02-28T03:37:50;8.88;;;3.92;;
53881;SDS011;39794;55.782;37.452;2023-02-28T03:40:21;7.75;;;4.00;;
53881;SDS011;39794;55.782;37.452;2023-02-28T03:42:54;7.80;;;3.83;;
53881;SDS011;39794;55.782;37.452;2023-02-28T03:45:26;7.20;;;4.45;;
53881;SDS011;39794;55.782;37.452;2023-02-28T03:47:57;6.78;;;4.05;;
53881;SDS011;39794;55.782;37.452;2023-02-28T03:50:32;5.65;;;2.95;;
53881;SDS011;39794;55.782;37.452;2023-02-28T03:53:06;5.28;;;3.70;;
53881;SDS011;39794;55.782;37.452;2023-02-28T03:55:39;9.05;;;4.07;;
53881;SDS011;39794;55.782;37.452;2023-02-28T03:58:11;7.40;;;4.03;;
53881;SDS011;39794;55.782;37.452;2023-02-28T04:00:43;6.70;;;3.85;;
53881;SDS011;39794;55.782;37.452;2023-02-28T04:03:14;5.68;;;3.65;;
53881;SDS011;39794;55.782;37.452;2023-02-28T04:05:47;7.50;;;4.15;;
53881;SDS011;39794;55.782;37.452;2023-02-28T04:08:21;3.83;;;2.92;;
53881;SDS011;39794;55.782;37.452;2023-02-28T04:10:51;12.38;;;4.47;;
53881;SDS011;39794;55.782;37.452;2023-02-28T04:13:24;9.35;;;3.95;;
53881;SDS011;39794;55.782;37.452;2023-02-28T04:15:52;8.07;;;3.50;;
53881;SDS011;39794;55.782;37.452;2023-02-28T04:18:21;6.05;;;3.08;;
53881;SDS011;39794;55.782;37.452;2023-02-28T04:20:49;6.78;;;3.30;;
53881;SDS011;39794;55.782;37.452;2023-02-28T04:23:21;5.25;;;3.13;;
53881;SDS011;39794;55.782;37.452;2023-02-28T04:25:54;5.10;;;3.13;;
53881;SDS011;39794;55.782;37.452;2023-02-28T04:28:22;5.60;;;3.15;;
53881;SDS011;39794;55.782;37.452;2023-02-28T04:30:54;7.15;;;3.53;;
53881;SDS011;39794;55.782;37.452;2023-02-28T04:33:23;6.47;;;3.72;;
53881;SDS011;39794;55.782;37.452;2023-02-28T04:35:57;4.43;;;2.50;;
53881;SDS011;39794;55.782;37.452;2023-02-28T04:38:28;5.60;;;3.15;;
53881;SDS011;39794;55.782;37.452;2023-02-28T04:40:57;6.35;;;3.00;;
53881;SDS011;39794;55.782;37.452;2023-02-28T04:43:26;6.72;;;2.83;;
53881;SDS011;39794;55.782;37.452;2023-02-28T04:45:57;3.80;;;2.83;;
53881;SDS011;39794;55.782;37.452;2023-02-28T04:48:32;5.88;;;3.53;;
53881;SDS011;39794;55.782;37.452;2023-02-28T04:51:01;5.53;;;3.47;;
53881;SDS011;39794;55.782;37.452;2023-02-28T04:53:31;5.40;;;2.50;;
53881;SDS011;39794;55.782;37.452;2023-02-28T04:56:00;5.43;;;3.28;;
53881;SDS011;39794;55.782;37.452;2023-02-28T04:58:29;4.57;;;2.58;;
53881;SDS011;39794;55.782;37.452;2023-02-28T05:01:01;5.97;;;3.05;;
53881;SDS011;39794;55.782;37.452;2023-02-28T05:03:32;3.90;;;2.65;;
53881;SDS011;39794;55.782;37.452;2023-02-28T05:06:02;4.05;;;2.58;;
53881;SDS011;39794;55.782;37.452;2023-02-28T05:08:32;4.10;;;2.58;;
53881;SDS011;39794;55.782;37.452;2023-02-28T05:11:01;4.70;;;3.15;;
53881;SDS011;39794;55.782;37.452;2023-02-28T05:13:31;3.33;;;2.47;;
53881;SDS011;39794;55.782;37.452;2023-02-28T05:16:00;5.30;;;3.05;;
53881;SDS011;39794;55.782;37.452;2023-02-28T05:18:29;3.28;;;2.05;;
53881;SDS011;39794;55.782;37.452;2023-02-28T05:20:58;4.93;;;2.83;;
53881;SDS011;39794;55.782;37.452;2023-02-28T05:23:29;5.45;;;2.85;;
53881;SDS011;39794;55.782;37.452;2023-02-28T05:25:59;4.35;;;2.75;;
53881;SDS011;39794;55.782;37.452;2023-02-28T05:28:28;4.43;;;2.45;;
53881;SDS011;39794;55.782;37.452;2023-02-28T05:30:57;6.40;;;2.60;;
53881;SDS011;39794;55.782;37.452;2023-02-28T05:33:26;4.47;;;2.90;;
53881;SDS011;39794;55.782;37.452;2023-02-28T05:35:56;4.30;;;2.20;;
53881;SDS011;39794;55.782;37.452;2023-02-28T05:38:25;5.63;;;2.65;;
53881;SDS011;39794;55.782;37.452;2023-02-28T05:40:53;4.28;;;2.75;;
53881;SDS011;39794;55.782;37.452;2023-02-28T05:43:24;3.75;;;2.30;;
53881;SDS011;39794;55.782;37.452;2023-02-28T05:45:53;3.03;;;2.15;;
53881;SDS011;39794;55.782;37.452;2023-02-28T05:48:22;2.65;;;2.00;;
53881;SDS011;39794;55.782;37.452;2023-02-28T05:50:50;4.97;;;2.45;;
53881;SDS011;39794;55.782;37.452;2023-02-28T05:53:22;4.47;;;2.63;;
53881;SDS011;39794;55.782;37.452;2023-02-28T05:55:55;3.25;;;2.20;;
53881;SDS011;39794;55.782;37.452;2023-02-28T05:58:28;4.75;;;2.35;;
53881;SDS011;39794;55.782;37.452;2023-02-28T06:00:58;5.03;;;2.38;;
53881;SDS011;39794;55.782;37.452;2023-02-28T06:03:30;3.38;;;2.13;;
53881;SDS011;39794;55.782;37.452;2023-02-28T06:06:05;4.45;;;2.28;;
53881;SDS011;39794;55.782;37.452;2023-02-28T06:08:33;4.25;;;2.40;;
53881;SDS011;39794;55.782;37.452;2023-02-28T06:11:02;3.33;;;2.35;;
53881;SDS011;39794;55.782;37.452;2023-02-28T06:13:32;3.33;;;2.10;;
53881;SDS011;39794;55.782;37.452;2023-02-28T06:16:01;5.60;;;3.08;;
53881;SDS011;39794;55.782;37.452;2023-02-28T06:18:30;2.58;;;1.90;;
53881;SDS011;39794;55.782;37.452;2023-02-28T06:21:02;4.85;;;2.80;;
53881;SDS011;39794;55.782;37.452;2023-02-28T06:23:31;2.08;;;1.75;;
53881;SDS011;39794;55.782;37.452;2023-02-28T06:26:02;3.72;;;2.13;;
53881;SDS011;39794;55.782;37.452;2023-02-28T06:28:35;2.58;;;2.00;;
53881;SDS011;39794;55.782;37.452;2023-02-28T06:31:08;3.97;;;2.28;;
53881;SDS011;39794;55.782;37.452;2023-02-28T06:33:38;4.85;;;2.65;;
53881;SDS011;39794;55.782;37.452;2023-02-28T06:36:07;2.47;;;2.22;;
53881;SDS011;39794;55.782;37.452;2023-02-28T06:38:37;2.28;;;1.75;;
53881;SDS011;39794;55.782;37.452;2023-02-28T06:41:05;2.03;;;1.83;;
53881;SDS011;39794;55.782;37.452;2023-02-28T06:43:36;2.70;;;1.92;;
53881;SDS011;39794;55.782;37.452;2023-02-28T06:46:10;8.47;;;2.80;;
53881;SDS011;39794;55.782;37.452;2023-02-28T06:48:41;1.95;;;1.48;;
53881;SDS011;39794;55.782;37.452;2023-02-28T06:51:14;2.88;;;1.73;;
53881;SDS011;39794;55.782;37.452;2023-02-28T06:53:44;3.95;;;2.25;;
53881;SDS011;39794;55.782;37.452;2023-02-28T06:56:13;4.55;;;2.35;;
53881;SDS011;39794;55.782;37.452;2023-02-28T06:58:47;2.97;;;2.13;;
53881;SDS011;39794;55.782;37.452;2023-02-28T07:01:17;2.70;;;1.63;;
53881;SDS011;39794;55.782;37.452;2023-02-28T07:03:46;4.68;;;1.70;;
53881;SDS011;39794;55.782;37.452;2023-02-28T07:06:20;3.63;;;2.40;;
53881;SDS011;39794;55.782;37.452;2023-02-28T07:08:49;3.35;;;2.17;;
53881;SDS011;39794;55.782;37.452;2023-02-28T07:11:19;3.00;;;1.98;;
53881;SDS011;39794;55.782;37.452;2023-02-28T07:13:53;5.70;;;2.58;;
53881;SDS011;39794;55.782;37.452;2023-02-28T07:16:25;3.80;;;1.92;;
53881;SDS011;39794;55.782;37.452;2023-02-28T07:18:54;3.30;;;2.03;;
53881;SDS011;39794;55.782;37.452;2023-02-28T07:21:23;2.60;;;1.77;;
53881;SDS011;39794;55.782;37.452;2023-02-28T07:23:51;2.95;;;1.83;;
53881;SDS011;39794;55.782;37.452;2023-02-28T07:26:20;3.40;;;2.03;;
53881;SDS011;39794;55.782;37.452;2023-02-28T07:28:49;4.38;;;1.77;;
53881;SDS011;39794;55.782;37.452;2023-02-28T07:31:19;2.72;;;2.17;;
53881;SDS011;39794;55.782;37.452;2023-02-28T07:33:48;3.13;;;2.30;;
53881;SDS011;39794;55.782;37.452;2023-02-28T07:36:16;3.30;;;1.98;;
53881;SDS011;39794;55.782;37.452;2023-02-28T07:38:46;2.38;;;2.00;;
53881;SDS011;39794;55.782;37.452;2023-02-28T07:41:17;4.82;;;2.53;;
53881;SDS011;39794;55.782;37.452;2023-02-28T07:43:49;1.83;;;1.65;;
53881;SDS011;39794;55.782;37.452;2023-02-28T07:46:17;4.43;;;2.45;;
53881;SDS011;39794;55.782;37.452;2023-02-28T07:48:49;4.75;;;2.42;;
53881;SDS011;39794;55.782;37.452;2023-02-28T07:51:18;3.30;;;2.28;;
53881;SDS011;39794;55.782;37.452;2023-02-28T07:53:46;4.32;;;2.47;;
53881;SDS011;39794;55.782;37.452;2023-02-28T07:56:15;2.40;;;2.05;;
53881;SDS011;39794;55.782;37.452;2023-02-28T07:58:43;2.65;;;1.83;;
53881;SDS011;39794;55.782;37.452;2023-02-28T08:01:12;3.80;;;2.58;;
53881;SDS011;39794;55.782;37.452;2023-02-28T08:03:41;3.28;;;2.03;;
53881;SDS011;39794;55.782;37.452;2023-02-28T08:06:17;3.03;;;1.80;;
53881;SDS011;39794;55.782;37.452;2023-02-28T08:08:49;3.67;;;1.80;;
53881;SDS011;39794;55.782;37.452;2023-02-28T08:11:18;3.25;;;2.33;;
53881;SDS011;39794;55.782;37.452;2023-02-28T08:13:46;3.13;;;1.95;;
53881;SDS011;39794;55.782;37.452;2023-02-28T08:16:15;2.42;;;2.13;;
53881;SDS011;39794;55.782;37.452;2023-02-28T08:18:49;6.10;;;2.30;;
53881;SDS011;39794;55.782;37.452;2023-02-28T08:21:19;4.18;;;2.53;;
53881;SDS011;39794;55.782;37.452;2023-02-28T08:23:48;2.55;;;2.30;;
53881;SDS011;39794;55.782;37.452;2023-02-28T08:26:17;3.08;;;2.40;;
53881;SDS011;39794;55.782;37.452;2023-02-28T08:28:46;2.33;;;1.73;;
53881;SDS011;39794;55.782;37.452;2023-02-28T08:31:15;3.03;;;1.90;;
53881;SDS011;39794;55.782;37.452;2023-02-28T08:33:46;3.75;;;2.10;;
53881;SDS011;39794;55.782;37.452;2023-02-28T08:36:19;4.05;;;1.85;;
53881;SDS011;39794;55.782;37.452;2023-02-28T08:38:51;2.05;;;1.45;;
53881;SDS011;39794;55.782;37.452;2023-02-28T08:41:20;2.85;;;2.05;;
53881;SDS011;39794;55.782;37.452;2023-02-28T08:43:48;1.65;;;1.52;;
53881;SDS011;39794;55.782;37.452;2023-02-28T08:46:17;6.00;;;1.90;;
53881;SDS011;39794;55.782;37.452;2023-02-28T08:48:46;2.50;;;1.77;;
53881;SDS011;39794;55.782;37.452;2023-02-28T08:51:19;3.72;;;2.03;;
53881;SDS011;39794;55.782;37.452;2023-02-28T08:53:57;4.43;;;2.50;;
53881;SDS011;39794;55.782;37.452;2023-02-28T08:56:28;3.80;;;2.08;;
53881;SDS011;39794;55.782;37.452;2023-02-28T08:58:56;4.05;;;2.13;;
53881;SDS011;39794;55.782;37.452;2023-02-28T09:01:26;2.88;;;1.50;;
53881;SDS011;39794;55.782;37.452;2023-02-28T09:03:56;4.15;;;2.10;;
53881;SDS011;39794;55.782;37.452;2023-02-28T09:06:26;5.28;;;2.00;;
53881;SDS011;39794;55.782;37.452;2023-02-28T09:08:58;4.32;;;2.90;;
53881;SDS011;39794;55.782;37.452;2023-02-28T09:11:28;2.92;;;2.20;;
53881;SDS011;39794;55.782;37.452;2023-02-28T09:13:57;4.13;;;2.20;;
53881;SDS011;39794;55.782;37.452;2023-02-28T09:16:30;3.00;;;1.80;;
53881;SDS011;39794;55.782;37.452;2023-02-28T09:19:00;3.08;;;2.13;;
53881;SDS011;39794;55.782;37.452;2023-02-28T09:21:30;2.33;;;1.60;;
53881;SDS011;39794;55.782;37.452;2023-02-28T09:23:59;2.92;;;1.88;;
53881;SDS011;39794;55.782;37.452;2023-02-28T09:26:29;2.13;;;1.70;;
53881;SDS011;39794;55.782;37.452;2023-02-28T09:29:09;1.95;;;1.65;;
53881;SDS011;39794;55.782;37.452;2023-02-28T09:31:38;2.47;;;2.17;;
53881;SDS011;39794;55.782;37.452;2023-02-28T09:34:08;2.72;;;1.95;;
53881;SDS011;39794;55.782;37.452;2023-02-28T09:36:39;3.83;;;1.85;;
53881;SDS011;39794;55.782;37.452;2023-02-28T09:39:12;3.83;;;2.13;;
53881;SDS011;39794;55.782;37.452;2023-02-28T09:41:42;4.10;;;1.95;;
53881;SDS011;39794;55.782;37.452;2023-02-28T09:44:16;2.50;;;1.70;;
53881;SDS011;39794;55.782;37.452;2023-02-28T09:46:49;3.92;;;1.90;;
53881;SDS011;39794;55.782;37.452;2023-02-28T09:49:22;3.33;;;2.42;;
53881;SDS011;39794;55.782;37.452;2023-02-28T09:51:56;3.95;;;2.03;;
53881;SDS011;39794;55.782;37.452;2023-02-28T09:56:58;4.78;;;1.77;;
53881;SDS011;39794;55.782;37.452;2023-02-28T09:59:31;5.15;;;2.45;;
53881;SDS011;39794;55.782;37.452;2023-02-28T10:02:21;3.80;;;1.80;;
53881;SDS011;39794;55.782;37.452;2023-02-28T10:05:04;3.53;;;1.67;;
53881;SDS011;39794;55.782;37.452;2023-02-28T10:07:47;2.55;;;2.05;;
53881;SDS011;39794;55.782;37.452;2023-02-28T10:10:22;1.98;;;1.83;;
53881;SDS011;39794;55.782;37.452;2023-02-28T10:12:55;2.80;;;2.00;;
53881;SDS011;39794;55.782;37.452;2023-02-28T10:15:27;2.97;;;2.15;;
53881;SDS011;39794;55.782;37.452;2023-02-28T10:18:02;2.30;;;1.60;;
53881;SDS011;39794;55.782;37.452;2023-02-28T10:20:36;4.07;;;2.10;;
53881;SDS011;39794;55.782;37.452;2023-02-28T10:23:09;3.20;;;2.05;;
53881;SDS011;39794;55.782;37.452;2023-02-28T10:25:42;3.80;;;2.08;;
53881;SDS011;39794;55.782;37.452;2023-02-28T10:28:15;3.13;;;1.80;;
53881;SDS011;39794;55.782;37.452;2023-02-28T10:30:46;3.80;;;2.70;;
53881;SDS011;39794;55.782;37.452;2023-02-28T10:33:19;2.65;;;1.50;;
53881;SDS011;39794;55.782;37.452;2023-02-28T10:35:51;2.85;;;2.03;;
53881;SDS011;39794;55.782;37.452;2023-02-28T10:38:22;3.08;;;1.95;;
53881;SDS011;39794;55.782;37.452;2023-02-28T10:41:01;4.13;;;2.30;;
53881;SDS011;39794;55.782;37.452;2023-02-28T10:43:32;6.05;;;2.38;;
53881;SDS011;39794;55.782;37.452;2023-02-28T10:46:04;5.35;;;1.85;;
53881;SDS011;39794;55.782;37.452;2023-02-28T10:48:38;5.18;;;2.42;;
53881;SDS011;39794;55.782;37.452;2023-02-28T10:51:12;3.13;;;2.05;;
53881;SDS011;39794;55.782;37.452;2023-02-28T10:53:48;3.78;;;2.38;;
53881;SDS011;39794;55.782;37.452;2023-02-28T10:56:27;4.68;;;2.38;;
53881;SDS011;39794;55.782;37.452;2023-02-28T10:58:58;2.03;;;1.75;;
53881;SDS011;39794;55.782;37.452;2023-02-28T11:01:36;2.90;;;2.22;;
53881;SDS011;39794;55.782;37.452;2023-02-28T11:04:16;2.90;;;1.92;;
53881;SDS011;39794;55.782;37.452;2023-02-28T11:06:51;1.90;;;1.65;;
53881;SDS011;39794;55.782;37.452;2023-02-28T11:09:28;6.78;;;2.30;;
53881;SDS011;39794;55.782;37.452;2023-02-28T11:11:59;3.28;;;2.13;;
53881;SDS011;39794;55.782;37.452;2023-02-28T11:14:29;3.30;;;2.10;;
53881;SDS011;39794;55.782;37.452;2023-02-28T11:17:03;2.55;;;2.17;;
53881;SDS011;39794;55.782;37.452;2023-02-28T11:19:44;2.65;;;1.83;;
53881;SDS011;39794;55.782;37.452;2023-02-28T11:22:16;3.33;;;2.17;;
53881;SDS011;39794;55.782;37.452;2023-02-28T11:24:49;3.83;;;2.40;;
53881;SDS011;39794;55.782;37.452;2023-02-28T11:27:26;2.72;;;2.33;;
53881;SDS011;39794;55.782;37.452;2023-02-28T11:30:28;4.82;;;2.40;;
53881;SDS011;39794;55.782;37.452;2023-02-28T11:32:59;6.18;;;2.30;;
53881;SDS011;39794;55.782;37.452;2023-02-28T11:35:28;2.72;;;2.35;;
53881;SDS011;39794;55.782;37.452;2023-02-28T11:38:00;4.55;;;1.98;;
53881;SDS011;39794;55.782;37.452;2023-02-28T11:40:31;3.83;;;2.58;;
53881;SDS011;39794;55.782;37.452;2023-02-28T11:43:09;4.68;;;2.45;;
53881;SDS011;39794;55.782;37.452;2023-02-28T11:45:49;3.65;;;2.42;;
53881;SDS011;39794;55.782;37.452;2023-02-28T11:48:32;4.13;;;2.75;;
53881;SDS011;39794;55.782;37.452;2023-02-28T11:51:06;4.20;;;2.83;;
53881;SDS011;39794;55.782;37.452;2023-02-28T11:53:53;3.33;;;2.42;;
53881;SDS011;39794;55.782;37.452;2023-02-28T11:56:48;3.65;;;2.00;;
53881;SDS011;39794;55.782;37.452;2023-02-28T11:59:28;3.15;;;2.17;;
53881;SDS011;39794;55.782;37.452;2023-02-28T12:02:16;6.75;;;3.13;;
53881;SDS011;39794;55.782;37.452;2023-02-28T12:05:01;4.72;;;2.72;;
53881;SDS011;39794;55.782;37.452;2023-02-28T12:07:42;2.65;;;2.10;;
53881;SDS011;39794;55.782;37.452;2023-02-28T12:10:20;4.03;;;2.40;;
53881;SDS011;39794;55.782;37.452;2023-02-28T12:13:04;4.95;;;3.05;;
53881;SDS011;39794;55.782;37.452;2023-02-28T12:15:54;6.38;;;3.13;;
53881;SDS011;39794;55.782;37.452;2023-02-28T12:18:42;5.82;;;2.58;;
53881;SDS011;39794;55.782;37.452;2023-02-28T12:21:23;6.30;;;3.88;;
53881;SDS011;39794;55.782;37.452;2023-02-28T12:24:01;6.95;;;3.17;;
53881;SDS011;39794;55.782;37.452;2023-02-28T12:26:36;3.42;;;2.35;;
53881;SDS011;39794;55.782;37.452;2023-02-28T12:29:12;5.97;;;2.97;;
53881;SDS011;39794;55.782;37.452;2023-02-28T12:31:45;5.15;;;2.95;;
53881;SDS011;39794;55.782;37.452;2023-02-28T12:34:19;3.50;;;2.42;;
53881;SDS011;39794;55.782;37.452;2023-02-28T12:36:49;5.32;;;3.05;;
53881;SDS011;39794;55.782;37.452;2023-02-28T12:39:19;5.30;;;2.83;;
53881;SDS011;39794;55.782;37.452;2023-02-28T12:41:52;5.25;;;3.20;;
53881;SDS011;39794;55.782;37.452;2023-02-28T12:44:26;7.30;;;3.55;;
53881;SDS011;39794;55.782;37.452;2023-02-28T12:46:59;4.53;;;2.80;;
53881;SDS011;39794;55.782;37.452;2023-02-28T12:49:33;4.13;;;2.78;;
53881;SDS011;39794;55.782;37.452;2023-02-28T12:52:02;3.83;;;2.60;;
53881;SDS011;39794;55.782;37.452;2023-02-28T12:54:33;4.40;;;2.80;;
53881;SDS011;39794;55.782;37.452;2023-02-28T12:57:09;7.90;;;3.55;;
53881;SDS011;39794;55.782;37.452;2023-02-28T12:59:44;8.65;;;3.20;;
53881;SDS011;39794;55.782;37.452;2023-02-28T13:05:02;6.38;;;3.35;;
53881;SDS011;39794;55.782;37.452;2023-02-28T13:10:39;5.00;;;2.97;;
53881;SDS011;39794;55.782;37.452;2023-02-28T13:13:17;3.65;;;2.53;;
53881;SDS011;39794;55.782;37.452;2023-02-28T13:16:05;4.78;;;2.90;;
53881;SDS011;39794;55.782;37.452;2023-02-28T13:18:36;5.07;;;2.92;;
53881;SDS011;39794;55.782;37.452;2023-02-28T13:21:07;4.55;;;3.00;;
53881;SDS011;39794;55.782;37.452;2023-02-28T13:23:40;3.80;;;2.40;;
53881;SDS011;39794;55.782;37.452;2023-02-28T13:29:31;4.28;;;3.22;;
53881;SDS011;39794;55.782;37.452;2023-02-28T13:35:14;4.10;;;2.42;;
53881;SDS011;39794;55.782;37.452;2023-02-28T13:37:46;2.75;;;2.15;;
53881;SDS011;39794;55.782;37.452;2023-02-28T13:40:28;5.95;;;3.38;;
53881;SDS011;39794;55.782;37.452;2023-02-28T13:43:06;5.65;;;2.90;;
53881;SDS011;39794;55.782;37.452;2023-02-28T13:45:36;3.22;;;2.22;;
53881;SDS011;39794;55.782;37.452;2023-02-28T13:48:16;3.50;;;2.58;;
53881;SDS011;39794;55.782;37.452;2023-02-28T13:50:46;3.20;;;2.10;;
53881;SDS011;39794;55.782;37.452;2023-02-28T13:56:10;3.75;;;2.42;;
53881;SDS011;39794;55.782;37.452;2023-02-28T13:58:51;2.67;;;2.38;;
53881;SDS011;39794;55.782;37.452;2023-02-28T14:04:33;4.50;;;2.50;;
53881;SDS011;39794;55.782;37.452;2023-02-28T14:07:10;2.63;;;2.00;;
53881;SDS011;39794;55.782;37.452;2023-02-28T14:09:48;4.53;;;2.30;;
53881;SDS011;39794;55.782;37.452;2023-02-28T14:15:35;2.83;;;2.08;;
53881;SDS011;39794;55.782;37.452;2023-02-28T14:18:17;4.15;;;2.63;;
53881;SDS011;39794;55.782;37.452;2023-02-28T14:20:55;3.10;;;2.10;;
53881;SDS011;39794;55.782;37.452;2023-02-28T14:23:48;3.25;;;2.00;;
53881;SDS011;39794;55.782;37.452;2023-02-28T14:32:31;4.32;;;2.30;;
53881;SDS011;39794;55.782;37.452;2023-02-28T14:35:03;2.95;;;1.70;;
53881;SDS011;39794;55.782;37.452;2023-02-28T14:37:43;4.47;;;2.88;;
53881;SDS011;39794;55.782;37.452;2023-02-28T14:40:14;4.20;;;2.47;;
53881;SDS011;39794;55.782;37.452;2023-02-28T14:42:47;3.55;;;2.92;;
53881;SDS011;39794;55.782;37.452;2023-02-28T14:45:17;3.88;;;2.53;;
53881;SDS011;39794;55.782;37.452;2023-02-28T14:47:47;5.45;;;3.35;;
53881;SDS011;39794;55.782;37.452;2023-02-28T14:50:18;2.83;;;2.10;;
53881;SDS011;39794;55.782;37.452;2023-02-28T14:52:52;4.25;;;2.58;;
53881;SDS011;39794;55.782;37.452;2023-02-28T14:55:24;3.47;;;2.38;;
53881;SDS011;39794;55.782;37.452;2023-02-28T14:57:56;3.25;;;2.30;;
53881;SDS011;39794;55.782;37.452;2023-02-28T15:00:25;3.53;;;2.38;;
53881;SDS011;39794;55.782;37.452;2023-02-28T15:02:59;4.82;;;2.85;;
53881;SDS011;39794;55.782;37.452;2023-02-28T15:05:29;4.78;;;3.17;;
53881;SDS011;39794;55.782;37.452;2023-02-28T15:08:02;3.92;;;2.42;;
53881;SDS011;39794;55.782;37.452;2023-02-28T15:10:33;3.00;;;2.33;;
53881;SDS011;39794;55.782;37.452;2023-02-28T15:13:04;3.72;;;2.63;;
53881;SDS011;39794;55.782;37.452;2023-02-28T15:15:44;4.90;;;2.75;;
53881;SDS011;39794;55.782;37.452;2023-02-28T15:18:30;3.95;;;2.60;;
53881;SDS011;39794;55.782;37.452;2023-02-28T15:21:02;4.10;;;2.50;;
53881;SDS011;39794;55.782;37.452;2023-02-28T15:23:34;3.75;;;2.38;;
53881;SDS011;39794;55.782;37.452;2023-02-28T15:26:04;3.65;;;2.47;;
53881;SDS011;39794;55.782;37.452;2023-02-28T15:28:33;5.68;;;3.08;;
53881;SDS011;39794;55.782;37.452;2023-02-28T15:31:03;3.92;;;2.15;;
53881;SDS011;39794;55.782;37.452;2023-02-28T15:33:55;7.93;;;2.65;;
53881;SDS011;39794;55.782;37.452;2023-02-28T15:36:26;3.88;;;2.15;;
53881;SDS011;39794;55.782;37.452;2023-02-28T15:39:02;3.25;;;2.72;;
53881;SDS011;39794;55.782;37.452;2023-02-28T15:41:41;2.42;;;1.80;;